sensor_id;sensor_type;location;lat;lon;timestamp;temperature;humidity
51559;DHT22;61650;48.882;2.092;2023-04-19T00:01:12;7.90;99.90
51559;DHT22;61650;48.882;2.092;2023-04-19T00:03:38;7.80;99.90
51559;DHT22;61650;48.882;2.092;2023-04-19T00:06:04;7.80;99.90
51559;DHT22;61650;48.882;2.092;2023-04-19T00:08:29;7.70;99.90
51559;DHT22;61650;48.882;2.092;2023-04-19T00:10:55;7.60;99.90
51559;DHT22;61650;48.882;2.092;2023-04-19T00:13:20;7.50;99.90
51559;DHT22;61650;48.882;2.092;2023-04-19T00:15:46;7.50;99.90
51559;DHT22;61650;48.882;2.092;2023-04-19T00:18:12;7.50;99.90
51559;DHT22;61650;48.882;2.092;2023-04-19T00:20:38;7.50;99.90
51559;DHT22;61650;48.882;2.092;2023-04-19T00:23:03;7.60;99.90
51559;DHT22;61650;48.882;2.092;2023-04-19T00:25:29;7.60;99.90
51559;DHT22;61650;48.882;2.092;2023-04-19T00:27:56;7.50;99.90
51559;DHT22;61650;48.882;2.092;2023-04-19T00:30:22;7.40;99.90
51559;DHT22;61650;48.882;2.092;2023-04-19T00:32:47;7.40;99.90
51559;DHT22;61650;48.882;2.092;2023-04-19T00:35:13;7.40;99.90
51559;DHT22;61650;48.882;2.092;2023-04-19T00:37:39;7.40;99.90
51559;DHT22;61650;48.882;2.092;2023-04-19T00:40:05;7.30;99.90
51559;DHT22;61650;48.882;2.092;2023-04-19T00:42:31;7.30;99.90
51559;DHT22;61650;48.882;2.092;2023-04-19T00:44:56;7.20;99.90
51559;DHT22;61650;48.882;2.092;2023-04-19T00:47:22;7.10;99.90
51559;DHT22;61650;48.882;2.092;2023-04-19T00:49:47;7.10;99.90
51559;DHT22;61650;48.882;2.092;2023-04-19T00:52:13;7.20;99.90
51559;DHT22;61650;48.882;2.092;2023-04-19T00:54:39;7.10;99.90
51559;DHT22;61650;48.882;2.092;2023-04-19T00:57:07;7.10;99.90
51559;DHT22;61650;48.882;2.092;2023-04-19T00:59:34;7.10;99.90
51559;DHT22;61650;48.882;2.092;2023-04-19T01:01:59;7.10;99.90
51559;DHT22;61650;48.882;2.092;2023-04-19T01:04:25;7.10;99.90
51559;DHT22;61650;48.882;2.092;2023-04-19T01:06:51;7.10;99.90
51559;DHT22;61650;48.882;2.092;2023-04-19T01:09:17;7.00;99.90
51559;DHT22;61650;48.882;2.092;2023-04-19T01:11:43;7.00;99.90
51559;DHT22;61650;48.882;2.092;2023-04-19T01:14:08;6.90;99.90
51559;DHT22;61650;48.882;2.092;2023-04-19T01:16:34;6.90;99.90
51559;DHT22;61650;48.882;2.092;2023-04-19T01:19:00;6.90;99.90
51559;DHT22;61650;48.882;2.092;2023-04-19T01:21:26;6.80;99.90
51559;DHT22;61650;48.882;2.092;2023-04-19T01:23:53;6.80;99.90
51559;DHT22;61650;48.882;2.092;2023-04-19T01:26:20;6.70;99.90
51559;DHT22;61650;48.882;2.092;2023-04-19T01:28:45;6.70;99.90
51559;DHT22;61650;48.882;2.092;2023-04-19T01:31:11;6.70;99.90
51559;DHT22;61650;48.882;2.092;2023-04-19T01:33:36;6.70;99.90
51559;DHT22;61650;48.882;2.092;2023-04-19T01:36:02;6.70;99.90
51559;DHT22;61650;48.882;2.092;2023-04-19T01:38:28;6.60;99.90
51559;DHT22;61650;48.882;2.092;2023-04-19T01:40:53;6.60;99.90
51559;DHT22;61650;48.882;2.092;2023-04-19T01:43:21;6.60;99.90
51559;DHT22;61650;48.882;2.092;2023-04-19T01:45:47;6.50;99.90
51559;DHT22;61650;48.882;2.092;2023-04-19T01:48:12;6.50;99.90
51559;DHT22;61650;48.882;2.092;2023-04-19T01:50:38;6.50;99.90
51559;DHT22;61650;48.882;2.092;2023-04-19T01:53:04;6.50;99.90
51559;DHT22;61650;48.882;2.092;2023-04-19T01:55:29;6.50;99.90
51559;DHT22;61650;48.882;2.092;2023-04-19T01:57:55;6.40;99.90
51559;DHT22;61650;48.882;2.092;2023-04-19T02:00:21;6.40;99.90
51559;DHT22;61650;48.882;2.092;2023-04-19T02:02:46;6.40;99.90
51559;DHT22;61650;48.882;2.092;2023-04-19T02:05:12;6.40;99.90
51559;DHT22;61650;48.882;2.092;2023-04-19T02:07:38;6.40;99.90
51559;DHT22;61650;48.882;2.092;2023-04-19T02:10:04;6.30;99.90
51559;DHT22;61650;48.882;2.092;2023-04-19T02:12:31;6.30;99.90
51559;DHT22;61650;48.882;2.092;2023-04-19T02:14:58;6.30;99.90
51559;DHT22;61650;48.882;2.092;2023-04-19T02:17:24;6.30;99.90
51559;DHT22;61650;48.882;2.092;2023-04-19T02:19:50;6.30;99.90
51559;DHT22;61650;48.882;2.092;2023-04-19T02:22:16;6.30;99.90
51559;DHT22;61650;48.882;2.092;2023-04-19T02:24:41;6.30;99.90
51559;DHT22;61650;48.882;2.092;2023-04-19T02:27:07;6.20;99.90
51559;DHT22;61650;48.882;2.092;2023-04-19T02:29:32;6.20;99.90
51559;DHT22;61650;48.882;2.092;2023-04-19T02:31:58;6.20;99.90
51559;DHT22;61650;48.882;2.092;2023-04-19T02:34:24;6.20;99.90
51559;DHT22;61650;48.882;2.092;2023-04-19T02:36:49;6.20;99.90
51559;DHT22;61650;48.882;2.092;2023-04-19T02:39:15;6.20;99.90
51559;DHT22;61650;48.882;2.092;2023-04-19T02:41:43;6.10;99.90
51559;DHT22;61650;48.882;2.092;2023-04-19T02:44:09;6.10;99.90
51559;DHT22;61650;48.882;2.092;2023-04-19T02:46:35;6.10;99.90
51559;DHT22;61650;48.882;2.092;2023-04-19T02:49:00;6.10;99.90
51559;DHT22;61650;48.882;2.092;2023-04-19T02:51:26;6.10;99.90
51559;DHT22;61650;48.882;2.092;2023-04-19T02:53:52;6.10;99.90
51559;DHT22;61650;48.882;2.092;2023-04-19T02:56:17;6.20;99.90
51559;DHT22;61650;48.882;2.092;2023-04-19T02:58:43;6.10;99.90
51559;DHT22;61650;48.882;2.092;2023-04-19T03:01:09;6.20;99.90
51559;DHT22;61650;48.882;2.092;2023-04-19T03:03:35;6.10;99.90
51559;DHT22;61650;48.882;2.092;2023-04-19T03:06:01;6.10;99.90
51559;DHT22;61650;48.882;2.092;2023-04-19T03:08:27;6.10;99.90
51559;DHT22;61650;48.882;2.092;2023-04-19T03:10:52;6.00;99.90
51559;DHT22;61650;48.882;2.092;2023-04-19T03:13:18;5.90;99.90
51559;DHT22;61650;48.882;2.092;2023-04-19T03:15:44;6.00;99.90
51559;DHT22;61650;48.882;2.092;2023-04-19T03:18:09;5.90;99.90
51559;DHT22;61650;48.882;2.092;2023-04-19T03:20:35;5.80;99.90
51559;DHT22;61650;48.882;2.092;2023-04-19T03:23:00;5.90;99.90
51559;DHT22;61650;48.882;2.092;2023-04-19T03:25:26;5.90;99.90
51559;DHT22;61650;48.882;2.092;2023-04-19T03:27:53;5.90;99.90
51559;DHT22;61650;48.882;2.092;2023-04-19T03:30:18;6.00;99.90
51559;DHT22;61650;48.882;2.092;2023-04-19T03:32:46;5.90;99.90
51559;DHT22;61650;48.882;2.092;2023-04-19T03:35:11;5.90;99.90
51559;DHT22;61650;48.882;2.092;2023-04-19T03:37:37;5.80;99.90
51559;DHT22;61650;48.882;2.092;2023-04-19T03:40:03;5.80;99.90
51559;DHT22;61650;48.882;2.092;2023-04-19T03:42:29;5.80;99.90
51559;DHT22;61650;48.882;2.092;2023-04-19T03:44:55;5.80;99.90
51559;DHT22;61650;48.882;2.092;2023-04-19T03:47:21;5.80;99.90
51559;DHT22;61650;48.882;2.092;2023-04-19T03:49:47;5.90;99.90
51559;DHT22;61650;48.882;2.092;2023-04-19T03:52:12;6.00;99.90
51559;DHT22;61650;48.882;2.092;2023-04-19T03:54:38;6.10;99.90
51559;DHT22;61650;48.882;2.092;2023-04-19T03:57:03;6.10;99.90
51559;DHT22;61650;48.882;2.092;2023-04-19T03:59:30;6.10;99.90
51559;DHT22;61650;48.882;2.092;2023-04-19T04:01:56;6.10;99.90
51559;DHT22;61650;48.882;2.092;2023-04-19T04:04:21;6.10;99.90
51559;DHT22;61650;48.882;2.092;2023-04-19T04:06:47;6.20;99.90
51559;DHT22;61650;48.882;2.092;2023-04-19T04:09:12;6.30;99.90
51559;DHT22;61650;48.882;2.092;2023-04-19T04:11:38;6.40;99.90
51559;DHT22;61650;48.882;2.092;2023-04-19T04:14:03;6.50;99.90
51559;DHT22;61650;48.882;2.092;2023-04-19T04:16:29;6.50;99.90
51559;DHT22;61650;48.882;2.092;2023-04-19T04:18:55;6.70;99.90
51559;DHT22;61650;48.882;2.092;2023-04-19T04:21:20;6.70;99.90
51559;DHT22;61650;48.882;2.092;2023-04-19T04:23:46;6.70;99.90
51559;DHT22;61650;48.882;2.092;2023-04-19T04:26:14;6.70;99.90
51559;DHT22;61650;48.882;2.092;2023-04-19T04:28:39;6.80;99.90
51559;DHT22;61650;48.882;2.092;2023-04-19T04:31:05;7.00;99.90
51559;DHT22;61650;48.882;2.092;2023-04-19T04:33:31;7.10;99.90
51559;DHT22;61650;48.882;2.092;2023-04-19T04:35:56;7.20;99.90
51559;DHT22;61650;48.882;2.092;2023-04-19T04:38:23;7.30;99.90
51559;DHT22;61650;48.882;2.092;2023-04-19T04:40:52;7.40;99.90
51559;DHT22;61650;48.882;2.092;2023-04-19T04:43:22;7.40;99.90
51559;DHT22;61650;48.882;2.092;2023-04-19T04:45:48;7.50;99.90
51559;DHT22;61650;48.882;2.092;2023-04-19T04:48:14;7.50;99.90
51559;DHT22;61650;48.882;2.092;2023-04-19T04:50:40;7.50;99.90
51559;DHT22;61650;48.882;2.092;2023-04-19T04:53:06;7.50;99.90
51559;DHT22;61650;48.882;2.092;2023-04-19T04:55:33;7.60;99.90
51559;DHT22;61650;48.882;2.092;2023-04-19T04:57:59;7.60;99.90
51559;DHT22;61650;48.882;2.092;2023-04-19T05:00:25;7.60;99.90
51559;DHT22;61650;48.882;2.092;2023-04-19T05:02:50;7.60;99.90
51559;DHT22;61650;48.882;2.092;2023-04-19T05:05:16;7.60;99.90
51559;DHT22;61650;48.882;2.092;2023-04-19T05:07:42;7.60;99.90
51559;DHT22;61650;48.882;2.092;2023-04-19T05:10:08;7.60;99.90
51559;DHT22;61650;48.882;2.092;2023-04-19T05:12:35;7.60;99.90
51559;DHT22;61650;48.882;2.092;2023-04-19T05:15:00;7.60;99.90
51559;DHT22;61650;48.882;2.092;2023-04-19T05:17:26;7.50;99.90
51559;DHT22;61650;48.882;2.092;2023-04-19T05:19:51;7.60;99.90
51559;DHT22;61650;48.882;2.092;2023-04-19T05:22:17;7.60;99.90
51559;DHT22;61650;48.882;2.092;2023-04-19T05:24:42;7.60;99.90
51559;DHT22;61650;48.882;2.092;2023-04-19T05:27:08;7.50;99.90
51559;DHT22;61650;48.882;2.092;2023-04-19T05:29:34;7.60;99.90
51559;DHT22;61650;48.882;2.092;2023-04-19T05:31:59;7.60;99.90
51559;DHT22;61650;48.882;2.092;2023-04-19T05:34:25;7.60;99.90
51559;DHT22;61650;48.882;2.092;2023-04-19T05:36:51;7.70;99.90
51559;DHT22;61650;48.882;2.092;2023-04-19T05:39:16;7.70;99.90
51559;DHT22;61650;48.882;2.092;2023-04-19T05:41:42;7.70;99.90
51559;DHT22;61650;48.882;2.092;2023-04-19T05:44:08;7.80;99.90
51559;DHT22;61650;48.882;2.092;2023-04-19T05:46:33;7.90;99.90
51559;DHT22;61650;48.882;2.092;2023-04-19T05:48:59;7.90;98.50
51559;DHT22;61650;48.882;2.092;2023-04-19T05:51:24;8.00;99.90
51559;DHT22;61650;48.882;2.092;2023-04-19T05:53:51;8.00;98.40
51559;DHT22;61650;48.882;2.092;2023-04-19T05:56:17;8.10;99.90
51559;DHT22;61650;48.882;2.092;2023-04-19T05:58:43;8.10;99.90
51559;DHT22;61650;48.882;2.092;2023-04-19T06:01:08;8.20;99.30
51559;DHT22;61650;48.882;2.092;2023-04-19T06:03:34;8.30;99.90
51559;DHT22;61650;48.882;2.092;2023-04-19T06:06:00;8.40;99.90
51559;DHT22;61650;48.882;2.092;2023-04-19T06:08:25;8.50;99.90
51559;DHT22;61650;48.882;2.092;2023-04-19T06:10:51;8.50;99.90
51559;DHT22;61650;48.882;2.092;2023-04-19T06:13:18;8.50;99.70
51559;DHT22;61650;48.882;2.092;2023-04-19T06:15:45;8.60;99.90
51559;DHT22;61650;48.882;2.092;2023-04-19T06:18:10;8.70;99.10
51559;DHT22;61650;48.882;2.092;2023-04-19T06:20:36;8.70;98.30
51559;DHT22;61650;48.882;2.092;2023-04-19T06:23:02;8.70;94.10
51559;DHT22;61650;48.882;2.092;2023-04-19T06:25:28;8.70;93.10
51559;DHT22;61650;48.882;2.092;2023-04-19T06:27:54;8.80;94.10
51559;DHT22;61650;48.882;2.092;2023-04-19T06:30:19;8.90;95.10
51559;DHT22;61650;48.882;2.092;2023-04-19T06:32:45;9.00;98.40
51559;DHT22;61650;48.882;2.092;2023-04-19T06:35:11;9.10;92.20
51559;DHT22;61650;48.882;2.092;2023-04-19T06:37:36;9.00;90.80
51559;DHT22;61650;48.882;2.092;2023-04-19T06:40:02;9.10;95.60
51559;DHT22;61650;48.882;2.092;2023-04-19T06:42:33;9.10;91.80
51559;DHT22;61650;48.882;2.092;2023-04-19T06:44:58;9.10;89.10
51559;DHT22;61650;48.882;2.092;2023-04-19T06:47:24;9.20;90.00
51559;DHT22;61650;48.882;2.092;2023-04-19T06:49:49;9.20;88.10
51559;DHT22;61650;48.882;2.092;2023-04-19T06:52:15;9.30;90.00
51559;DHT22;61650;48.882;2.092;2023-04-19T06:54:41;9.40;95.00
51559;DHT22;61650;48.882;2.092;2023-04-19T06:57:06;9.60;97.70
51559;DHT22;61650;48.882;2.092;2023-04-19T06:59:32;9.60;93.00
51559;DHT22;61650;48.882;2.092;2023-04-19T07:01:58;9.70;91.00
51559;DHT22;61650;48.882;2.092;2023-04-19T07:04:24;9.70;93.40
51559;DHT22;61650;48.882;2.092;2023-04-19T07:06:50;9.90;98.50
51559;DHT22;61650;48.882;2.092;2023-04-19T07:09:16;9.90;89.50
51559;DHT22;61650;48.882;2.092;2023-04-19T07:11:42;9.80;86.10
51559;DHT22;61650;48.882;2.092;2023-04-19T07:14:07;9.90;91.80
51559;DHT22;61650;48.882;2.092;2023-04-19T07:16:33;10.10;90.30
51559;DHT22;61650;48.882;2.092;2023-04-19T07:18:58;10.20;86.40
51559;DHT22;61650;48.882;2.092;2023-04-19T07:21:24;10.20;84.40
51559;DHT22;61650;48.882;2.092;2023-04-19T07:23:53;10.30;86.40
51559;DHT22;61650;48.882;2.092;2023-04-19T07:26:18;10.50;88.70
51559;DHT22;61650;48.882;2.092;2023-04-19T07:28:44;10.60;88.40
51559;DHT22;61650;48.882;2.092;2023-04-19T07:31:17;10.70;89.40
51559;DHT22;61650;48.882;2.092;2023-04-19T07:33:43;10.80;91.90
51559;DHT22;61650;48.882;2.092;2023-04-19T07:36:09;10.80;80.60
51559;DHT22;61650;48.882;2.092;2023-04-19T07:38:35;10.90;88.70
51559;DHT22;61650;48.882;2.092;2023-04-19T07:41:01;10.90;81.00
51559;DHT22;61650;48.882;2.092;2023-04-19T07:43:29;11.10;84.70
51559;DHT22;61650;48.882;2.092;2023-04-19T07:46:00;11.20;82.70
51559;DHT22;61650;48.882;2.092;2023-04-19T07:48:29;11.40;81.50
51559;DHT22;61650;48.882;2.092;2023-04-19T07:50:54;11.40;77.40
51559;DHT22;61650;48.882;2.092;2023-04-19T07:53:20;11.50;77.30
51559;DHT22;61650;48.882;2.092;2023-04-19T07:55:45;11.70;83.60
51559;DHT22;61650;48.882;2.092;2023-04-19T07:58:11;11.70;88.10
51559;DHT22;61650;48.882;2.092;2023-04-19T08:00:37;11.70;86.50
51559;DHT22;61650;48.882;2.092;2023-04-19T08:03:02;11.80;88.80
51559;DHT22;61650;48.882;2.092;2023-04-19T08:05:29;11.80;86.60
51559;DHT22;61650;48.882;2.092;2023-04-19T08:07:55;11.90;91.10
51559;DHT22;61650;48.882;2.092;2023-04-19T08:10:21;11.90;86.50
51559;DHT22;61650;48.882;2.092;2023-04-19T08:12:48;11.90;83.10
51559;DHT22;61650;48.882;2.092;2023-04-19T08:15:14;12.00;81.40
51559;DHT22;61650;48.882;2.092;2023-04-19T08:17:40;12.10;80.30
51559;DHT22;61650;48.882;2.092;2023-04-19T08:20:15;12.30;91.20
51559;DHT22;61650;48.882;2.092;2023-04-19T08:22:42;12.30;81.10
51559;DHT22;61650;48.882;2.092;2023-04-19T08:25:08;12.30;87.90
51559;DHT22;61650;48.882;2.092;2023-04-19T08:27:34;12.40;82.30
51559;DHT22;61650;48.882;2.092;2023-04-19T08:30:00;12.30;83.60
51559;DHT22;61650;48.882;2.092;2023-04-19T08:32:26;12.50;81.90
51559;DHT22;61650;48.882;2.092;2023-04-19T08:34:51;12.60;76.90
51559;DHT22;61650;48.882;2.092;2023-04-19T08:37:17;12.80;81.00
51559;DHT22;61650;48.882;2.092;2023-04-19T08:39:43;13.00;90.00
51559;DHT22;61650;48.882;2.092;2023-04-19T08:42:09;13.30;77.40
51559;DHT22;61650;48.882;2.092;2023-04-19T08:44:36;13.70;74.70
51559;DHT22;61650;48.882;2.092;2023-04-19T08:47:06;13.80;81.90
51559;DHT22;61650;48.882;2.092;2023-04-19T08:49:38;14.00;78.30
51559;DHT22;61650;48.882;2.092;2023-04-19T08:52:04;14.20;84.60
51559;DHT22;61650;48.882;2.092;2023-04-19T08:54:30;14.00;82.30
51559;DHT22;61650;48.882;2.092;2023-04-19T08:57:00;13.70;75.70
51559;DHT22;61650;48.882;2.092;2023-04-19T08:59:26;13.60;85.30
51559;DHT22;61650;48.882;2.092;2023-04-19T09:01:53;13.50;74.80
51559;DHT22;61650;48.882;2.092;2023-04-19T09:04:20;13.40;79.00
51559;DHT22;61650;48.882;2.092;2023-04-19T09:06:47;13.50;88.30
51559;DHT22;61650;48.882;2.092;2023-04-19T09:09:38;13.50;85.70
51559;DHT22;61650;48.882;2.092;2023-04-19T09:12:16;13.50;87.80
51559;DHT22;61650;48.882;2.092;2023-04-19T09:14:45;13.50;82.90
51559;DHT22;61650;48.882;2.092;2023-04-19T09:17:15;13.50;87.10
51559;DHT22;61650;48.882;2.092;2023-04-19T09:19:45;13.60;82.70
51559;DHT22;61650;48.882;2.092;2023-04-19T09:22:12;13.60;74.40
51559;DHT22;61650;48.882;2.092;2023-04-19T09:24:38;13.70;72.70
51559;DHT22;61650;48.882;2.092;2023-04-19T09:27:03;13.90;72.60
51559;DHT22;61650;48.882;2.092;2023-04-19T09:29:30;14.00;81.40
51559;DHT22;61650;48.882;2.092;2023-04-19T09:31:59;14.00;84.30
51559;DHT22;61650;48.882;2.092;2023-04-19T09:34:24;14.10;73.80
51559;DHT22;61650;48.882;2.092;2023-04-19T09:36:53;14.20;83.90
51559;DHT22;61650;48.882;2.092;2023-04-19T09:39:33;14.20;73.00
51559;DHT22;61650;48.882;2.092;2023-04-19T09:42:00;14.20;76.50
51559;DHT22;61650;48.882;2.092;2023-04-19T09:44:26;14.20;86.50
51559;DHT22;61650;48.882;2.092;2023-04-19T09:46:52;14.30;72.80
51559;DHT22;61650;48.882;2.092;2023-04-19T09:49:21;14.30;70.70
51559;DHT22;61650;48.882;2.092;2023-04-19T09:51:54;14.40;68.20
51559;DHT22;61650;48.882;2.092;2023-04-19T09:54:22;14.60;70.60
51559;DHT22;61650;48.882;2.092;2023-04-19T09:56:48;14.70;73.40
51559;DHT22;61650;48.882;2.092;2023-04-19T09:59:14;14.90;77.30
51559;DHT22;61650;48.882;2.092;2023-04-19T10:04:09;15.00;73.70
51559;DHT22;61650;48.882;2.092;2023-04-19T10:06:35;14.80;72.60
51559;DHT22;61650;48.882;2.092;2023-04-19T10:09:03;14.90;73.80
51559;DHT22;61650;48.882;2.092;2023-04-19T10:11:34;15.10;82.30
51559;DHT22;61650;48.882;2.092;2023-04-19T10:14:10;15.20;72.00
51559;DHT22;61650;48.882;2.092;2023-04-19T10:16:37;15.20;69.40
51559;DHT22;61650;48.882;2.092;2023-04-19T10:19:09;15.20;65.70
51559;DHT22;61650;48.882;2.092;2023-04-19T10:21:36;15.10;71.10
51559;DHT22;61650;48.882;2.092;2023-04-19T10:24:03;15.20;70.40
51559;DHT22;61650;48.882;2.092;2023-04-19T10:26:29;15.40;78.10
51559;DHT22;61650;48.882;2.092;2023-04-19T10:28:55;15.50;73.40
51559;DHT22;61650;48.882;2.092;2023-04-19T10:31:23;15.60;65.00
51559;DHT22;61650;48.882;2.092;2023-04-19T10:33:49;15.80;81.10
51559;DHT22;61650;48.882;2.092;2023-04-19T10:36:19;15.80;68.10
51559;DHT22;61650;48.882;2.092;2023-04-19T10:38:47;15.70;64.30
51559;DHT22;61650;48.882;2.092;2023-04-19T10:41:19;15.70;80.10
51559;DHT22;61650;48.882;2.092;2023-04-19T10:48:59;15.80;63.20
51559;DHT22;61650;48.882;2.092;2023-04-19T10:51:27;15.80;75.40
51559;DHT22;61650;48.882;2.092;2023-04-19T10:54:00;16.00;74.10
51559;DHT22;61650;48.882;2.092;2023-04-19T11:01:43;16.20;61.70
51559;DHT22;61650;48.882;2.092;2023-04-19T11:06:58;16.30;62.50
51559;DHT22;61650;48.882;2.092;2023-04-19T11:09:38;16.70;60.00
51559;DHT22;61650;48.882;2.092;2023-04-19T11:12:07;16.60;59.90
51559;DHT22;61650;48.882;2.092;2023-04-19T11:14:35;16.30;61.70
51559;DHT22;61650;48.882;2.092;2023-04-19T11:17:12;16.30;71.70
51559;DHT22;61650;48.882;2.092;2023-04-19T11:19:44;16.50;71.60
51559;DHT22;61650;48.882;2.092;2023-04-19T11:22:09;16.70;75.80
51559;DHT22;61650;48.882;2.092;2023-04-19T11:24:35;16.60;61.40
51559;DHT22;61650;48.882;2.092;2023-04-19T11:27:07;16.60;63.60
51559;DHT22;61650;48.882;2.092;2023-04-19T11:29:33;16.70;80.60
51559;DHT22;61650;48.882;2.092;2023-04-19T11:31:59;16.70;65.20
51559;DHT22;61650;48.882;2.092;2023-04-19T11:34:25;16.80;65.70
51559;DHT22;61650;48.882;2.092;2023-04-19T11:36:51;17.10;60.00
51559;DHT22;61650;48.882;2.092;2023-04-19T11:39:17;18.00;73.00
51559;DHT22;61650;48.882;2.092;2023-04-19T11:41:43;18.30;55.50
51559;DHT22;61650;48.882;2.092;2023-04-19T11:44:16;18.50;58.80
51559;DHT22;61650;48.882;2.092;2023-04-19T11:46:59;18.30;55.70
51559;DHT22;61650;48.882;2.092;2023-04-19T11:49:30;18.10;61.10
51559;DHT22;61650;48.882;2.092;2023-04-19T11:51:58;18.20;58.10
51559;DHT22;61650;48.882;2.092;2023-04-19T11:54:24;18.00;54.00
51559;DHT22;61650;48.882;2.092;2023-04-19T11:57:04;17.90;69.10
51559;DHT22;61650;48.882;2.092;2023-04-19T11:59:36;17.90;61.30
51559;DHT22;61650;48.882;2.092;2023-04-19T12:02:09;17.90;64.70
51559;DHT22;61650;48.882;2.092;2023-04-19T12:04:35;17.80;53.60
51559;DHT22;61650;48.882;2.092;2023-04-19T12:07:03;17.80;56.60
51559;DHT22;61650;48.882;2.092;2023-04-19T12:09:31;18.00;57.30
51559;DHT22;61650;48.882;2.092;2023-04-19T12:11:56;18.20;53.70
51559;DHT22;61650;48.882;2.092;2023-04-19T12:14:23;18.70;69.60
51559;DHT22;61650;48.882;2.092;2023-04-19T12:17:08;19.60;66.70
51559;DHT22;61650;48.882;2.092;2023-04-19T12:19:46;20.50;56.80
51559;DHT22;61650;48.882;2.092;2023-04-19T12:22:14;20.40;68.30
51559;DHT22;61650;48.882;2.092;2023-04-19T12:24:41;21.30;57.20
51559;DHT22;61650;48.882;2.092;2023-04-19T12:27:07;21.10;63.80
51559;DHT22;61650;48.882;2.092;2023-04-19T12:29:33;20.90;51.00
51559;DHT22;61650;48.882;2.092;2023-04-19T12:31:59;21.20;47.60
51559;DHT22;61650;48.882;2.092;2023-04-19T12:34:26;21.80;45.60
51559;DHT22;61650;48.882;2.092;2023-04-19T12:36:52;21.70;56.90
51559;DHT22;61650;48.882;2.092;2023-04-19T12:39:18;21.90;67.30
51559;DHT22;61650;48.882;2.092;2023-04-19T12:41:43;23.00;45.20
51559;DHT22;61650;48.882;2.092;2023-04-19T12:44:09;22.70;41.40
51559;DHT22;61650;48.882;2.092;2023-04-19T12:46:34;22.20;63.80
51559;DHT22;61650;48.882;2.092;2023-04-19T12:49:01;22.30;57.30
51559;DHT22;61650;48.882;2.092;2023-04-19T12:51:26;22.00;50.10
51559;DHT22;61650;48.882;2.092;2023-04-19T12:53:52;21.40;47.40
51559;DHT22;61650;48.882;2.092;2023-04-19T12:56:18;21.30;44.60
51559;DHT22;61650;48.882;2.092;2023-04-19T12:58:44;22.10;44.00
51559;DHT22;61650;48.882;2.092;2023-04-19T13:01:10;22.30;45.20
51559;DHT22;61650;48.882;2.092;2023-04-19T13:03:36;21.90;67.50
51559;DHT22;61650;48.882;2.092;2023-04-19T13:06:02;22.20;71.10
51559;DHT22;61650;48.882;2.092;2023-04-19T13:08:28;22.50;60.30
51559;DHT22;61650;48.882;2.092;2023-04-19T13:10:57;22.50;47.00
51559;DHT22;61650;48.882;2.092;2023-04-19T13:13:25;21.60;48.50
51559;DHT22;61650;48.882;2.092;2023-04-19T13:15:51;21.80;46.90
51559;DHT22;61650;48.882;2.092;2023-04-19T13:18:17;21.70;46.70
51559;DHT22;61650;48.882;2.092;2023-04-19T13:20:43;21.80;64.00
51559;DHT22;61650;48.882;2.092;2023-04-19T13:23:08;22.00;55.50
51559;DHT22;61650;48.882;2.092;2023-04-19T13:25:34;22.00;73.00
51559;DHT22;61650;48.882;2.092;2023-04-19T13:28:00;21.90;44.00
51559;DHT22;61650;48.882;2.092;2023-04-19T13:30:25;22.80;75.10
51559;DHT22;61650;48.882;2.092;2023-04-19T13:32:51;24.40;64.80
51559;DHT22;61650;48.882;2.092;2023-04-19T13:35:17;25.40;48.80
51559;DHT22;61650;48.882;2.092;2023-04-19T13:37:42;25.40;38.50
51559;DHT22;61650;48.882;2.092;2023-04-19T13:40:11;24.30;41.90
51559;DHT22;61650;48.882;2.092;2023-04-19T13:42:37;23.50;43.20
51559;DHT22;61650;48.882;2.092;2023-04-19T13:45:02;23.00;46.00
51559;DHT22;61650;48.882;2.092;2023-04-19T13:47:28;23.60;46.90
51559;DHT22;61650;48.882;2.092;2023-04-19T13:49:54;24.00;62.30
51559;DHT22;61650;48.882;2.092;2023-04-19T13:52:20;23.70;43.90
51559;DHT22;61650;48.882;2.092;2023-04-19T13:54:47;23.40;70.90
51559;DHT22;61650;48.882;2.092;2023-04-19T13:57:13;23.10;60.40
51559;DHT22;61650;48.882;2.092;2023-04-19T13:59:38;22.50;51.40
51559;DHT22;61650;48.882;2.092;2023-04-19T14:02:04;22.10;49.20
51559;DHT22;61650;48.882;2.092;2023-04-19T14:04:34;22.20;56.50
51559;DHT22;61650;48.882;2.092;2023-04-19T14:07:00;22.80;44.90
51559;DHT22;61650;48.882;2.092;2023-04-19T14:09:25;22.20;64.30
51559;DHT22;61650;48.882;2.092;2023-04-19T14:11:51;21.70;59.40
51559;DHT22;61650;48.882;2.092;2023-04-19T14:14:17;21.20;60.50
51559;DHT22;61650;48.882;2.092;2023-04-19T14:16:43;21.10;69.00
51559;DHT22;61650;48.882;2.092;2023-04-19T14:19:09;21.00;49.00
51559;DHT22;61650;48.882;2.092;2023-04-19T14:21:34;20.50;53.70
51559;DHT22;61650;48.882;2.092;2023-04-19T14:24:00;20.20;67.10
51559;DHT22;61650;48.882;2.092;2023-04-19T14:26:26;20.10;58.10
51559;DHT22;61650;48.882;2.092;2023-04-19T14:28:55;19.90;48.00
51559;DHT22;61650;48.882;2.092;2023-04-19T14:31:20;19.80;49.90
51559;DHT22;61650;48.882;2.092;2023-04-19T14:33:46;19.50;49.50
51559;DHT22;61650;48.882;2.092;2023-04-19T14:36:11;19.50;48.40
51559;DHT22;61650;48.882;2.092;2023-04-19T14:38:37;19.70;58.40
51559;DHT22;61650;48.882;2.092;2023-04-19T14:41:03;19.70;60.30
51559;DHT22;61650;48.882;2.092;2023-04-19T14:43:28;19.30;60.40
51559;DHT22;61650;48.882;2.092;2023-04-19T14:45:54;18.90;70.00
51559;DHT22;61650;48.882;2.092;2023-04-19T14:48:21;18.70;51.20
51559;DHT22;61650;48.882;2.092;2023-04-19T14:50:47;18.80;59.10
51559;DHT22;61650;48.882;2.092;2023-04-19T14:53:12;18.80;58.00
51559;DHT22;61650;48.882;2.092;2023-04-19T14:55:38;18.90;51.90
51559;DHT22;61650;48.882;2.092;2023-04-19T14:58:04;18.90;65.70
51559;DHT22;61650;48.882;2.092;2023-04-19T15:00:30;18.90;49.00
51559;DHT22;61650;48.882;2.092;2023-04-19T15:02:55;18.80;68.80
51559;DHT22;61650;48.882;2.092;2023-04-19T15:05:22;18.70;52.20
51559;DHT22;61650;48.882;2.092;2023-04-19T15:07:48;18.90;49.10
51559;DHT22;61650;48.882;2.092;2023-04-19T15:10:14;18.70;48.50
51559;DHT22;61650;48.882;2.092;2023-04-19T15:12:39;18.10;49.00
51559;DHT22;61650;48.882;2.092;2023-04-19T15:15:06;17.90;76.20
51559;DHT22;61650;48.882;2.092;2023-04-19T15:17:31;17.80;53.30
51559;DHT22;61650;48.882;2.092;2023-04-19T15:19:57;17.90;61.60
51559;DHT22;61650;48.882;2.092;2023-04-19T15:22:23;18.00;52.90
51559;DHT22;61650;48.882;2.092;2023-04-19T15:24:49;18.10;59.90
51559;DHT22;61650;48.882;2.092;2023-04-19T15:27:14;18.20;55.20
51559;DHT22;61650;48.882;2.092;2023-04-19T15:29:40;18.20;63.40
51559;DHT22;61650;48.882;2.092;2023-04-19T15:32:08;18.20;50.60
51559;DHT22;61650;48.882;2.092;2023-04-19T15:34:34;18.40;50.60
51559;DHT22;61650;48.882;2.092;2023-04-19T15:36:59;18.40;52.00
51559;DHT22;61650;48.882;2.092;2023-04-19T15:39:30;18.30;67.90
51559;DHT22;61650;48.882;2.092;2023-04-19T15:41:55;18.00;69.20
51559;DHT22;61650;48.882;2.092;2023-04-19T15:44:21;17.80;63.80
51559;DHT22;61650;48.882;2.092;2023-04-19T15:46:47;17.80;65.60
51559;DHT22;61650;48.882;2.092;2023-04-19T15:49:12;17.80;57.40